createdAt,value
2019-05-02T00:00:31.352Z,11.60
2019-05-02T00:03:04.491Z,11.60
2019-05-02T00:05:33.283Z,11.50
2019-05-02T00:08:03.730Z,11.40
2019-05-02T00:10:34.511Z,11.40
2019-05-02T00:13:04.753Z,11.40
2019-05-02T00:15:38.231Z,12.00
2019-05-02T00:18:06.615Z,11.90
2019-05-02T00:20:36.554Z,11.50
2019-05-02T00:23:06.523Z,11.30
2019-05-02T00:25:36.500Z,11.20
2019-05-02T00:28:07.870Z,11.20
2019-05-02T00:30:38.395Z,11.20
2019-05-02T00:33:10.545Z,11.10
2019-05-02T00:35:46.216Z,11.00
2019-05-02T00:38:13.243Z,11.00
2019-05-02T00:40:46.217Z,11.00
2019-05-02T00:43:14.914Z,11.00
2019-05-02T00:45:44.965Z,10.90
2019-05-02T00:48:19.254Z,10.90
2019-05-02T00:50:50.638Z,10.90
2019-05-02T00:53:21.868Z,10.80
2019-05-02T00:55:51.800Z,10.80
2019-05-02T00:58:21.809Z,10.90
2019-05-02T01:01:05.367Z,10.90
2019-05-02T01:03:37.067Z,10.90
2019-05-02T01:06:13.703Z,10.90
2019-05-02T01:08:40.268Z,10.90
2019-05-02T01:11:10.264Z,10.90
2019-05-02T01:13:40.246Z,10.90
2019-05-02T01:16:15.132Z,11.00
2019-05-02T01:18:43.501Z,11.00
2019-05-02T01:21:13.466Z,11.00
2019-05-02T01:23:43.524Z,11.00
2019-05-02T01:26:13.535Z,11.00
2019-05-02T01:28:49.207Z,11.10
2019-05-02T01:31:23.767Z,11.10
2019-05-02T01:34:13.068Z,11.20
2019-05-02T01:36:46.637Z,11.30
2019-05-02T01:39:17.028Z,11.30
2019-05-02T01:41:47.046Z,11.40
2019-05-02T01:44:17.001Z,11.40
2019-05-02T01:46:47.959Z,11.30
2019-05-02T01:49:21.864Z,11.30
2019-05-02T01:51:54.424Z,11.30
2019-05-02T01:54:24.393Z,11.30
2019-05-02T01:56:54.423Z,11.40
2019-05-02T01:59:24.500Z,11.40
2019-05-02T02:01:58.028Z,11.40
2019-05-02T02:04:26.224Z,11.50
2019-05-02T02:06:56.164Z,11.50
2019-05-02T02:09:26.189Z,11.50
2019-05-02T02:11:56.135Z,11.50
2019-05-02T02:14:26.103Z,11.60
2019-05-02T02:16:56.143Z,11.50
2019-05-02T02:19:27.732Z,11.60
2019-05-02T02:22:02.702Z,11.60
2019-05-02T02:24:39.726Z,11.60
2019-05-02T02:27:09.785Z,11.60
2019-05-02T02:29:43.971Z,11.70
2019-05-02T02:32:11.522Z,11.70
2019-05-02T02:34:41.542Z,11.60
2019-05-02T02:37:12.475Z,11.80
2019-05-02T02:39:48.591Z,11.70
2019-05-02T02:42:14.936Z,11.60
2019-05-02T02:44:46.516Z,11.60
2019-05-02T02:47:19.002Z,11.70
2019-05-02T02:49:48.154Z,11.70
2019-05-02T02:52:18.908Z,11.70
2019-05-02T02:54:48.871Z,11.70
2019-05-02T02:57:25.727Z,11.60
2019-05-02T02:59:50.696Z,11.70
2019-05-02T03:02:20.788Z,11.70
2019-05-02T03:04:50.823Z,11.70
2019-05-02T03:07:25.687Z,11.70
2019-05-02T03:09:53.064Z,11.70
2019-05-02T03:12:24.649Z,11.50
2019-05-02T03:14:59.115Z,11.50
2019-05-02T03:17:34.633Z,11.50
2019-05-02T03:20:06.405Z,11.40
2019-05-02T03:22:41.811Z,11.40
2019-05-02T03:25:08.215Z,11.50
2019-05-02T03:27:40.358Z,11.60
2019-05-02T03:30:28.752Z,11.60
2019-05-02T03:33:03.579Z,11.60
2019-05-02T03:35:18.351Z,11.60
2019-05-02T03:37:51.447Z,11.70
2019-05-02T03:40:17.545Z,11.80
2019-05-02T03:42:47.841Z,11.70
2019-05-02T03:45:18.022Z,11.80
2019-05-02T03:47:48.492Z,11.80
2019-05-02T03:50:31.619Z,11.90
2019-05-02T03:52:50.952Z,11.90
2019-05-02T03:55:23.947Z,11.80
2019-05-02T03:57:53.144Z,11.80
2019-05-02T04:00:24.427Z,11.80
2019-05-02T04:03:00.335Z,11.80
2019-05-02T04:05:27.204Z,11.80
2019-05-02T04:07:57.290Z,11.90
2019-05-02T04:10:52.697Z,12.00
2019-05-02T04:13:21.339Z,12.00
2019-05-02T04:15:51.364Z,12.00
2019-05-02T04:18:21.483Z,12.00
2019-05-02T04:20:52.202Z,12.00
2019-05-02T04:23:27.822Z,11.90
2019-05-02T04:25:55.782Z,11.90
2019-05-02T04:28:25.833Z,11.90
2019-05-02T04:30:55.852Z,11.90
2019-05-02T04:33:29.004Z,11.90
2019-05-02T04:35:59.484Z,12.00
2019-05-02T04:38:42.358Z,12.20
2019-05-02T04:41:02.765Z,12.00
2019-05-02T04:43:32.797Z,12.20
2019-05-02T04:46:08.466Z,12.20
2019-05-02T04:48:39.951Z,12.00
2019-05-02T04:51:15.952Z,12.10
2019-05-02T04:53:44.335Z,12.20
2019-05-02T04:56:10.996Z,12.20
2019-05-02T04:58:41.107Z,12.20
2019-05-02T05:01:11.154Z,12.10
2019-05-02T05:03:41.570Z,12.10
2019-05-02T05:06:12.426Z,12.10
2019-05-02T05:08:43.751Z,12.20
2019-05-02T05:11:13.939Z,12.10
2019-05-02T05:13:47.667Z,12.00
2019-05-02T05:16:18.576Z,12.00
2019-05-02T05:18:53.020Z,12.00
2019-05-02T05:21:24.665Z,12.10
2019-05-02T05:24:01.198Z,12.30
2019-05-02T05:26:33.903Z,12.40
2019-05-02T05:29:01.947Z,12.50
2019-05-02T05:31:33.432Z,12.70
2019-05-02T05:34:03.502Z,12.80
2019-05-02T05:36:35.087Z,13.00
2019-05-02T05:39:08.544Z,13.00
2019-05-02T05:41:37.886Z,13.00
2019-05-02T05:44:08.149Z,13.10
2019-05-02T05:46:42.409Z,12.80
2019-05-02T05:49:10.562Z,13.20
2019-05-02T05:51:41.658Z,13.30
2019-05-02T05:54:12.569Z,13.50
2019-05-02T05:56:43.303Z,13.70
2019-05-02T05:59:13.499Z,13.50
2019-05-02T06:01:44.586Z,13.50
2019-05-02T06:04:19.389Z,13.60
2019-05-02T06:06:48.008Z,13.60
2019-05-02T06:09:18.504Z,13.60
2019-05-02T06:11:50.754Z,13.70
2019-05-02T06:14:24.776Z,13.70
2019-05-02T06:16:53.167Z,13.90
2019-05-02T06:19:23.394Z,13.90
2019-05-02T06:21:53.526Z,14.10
2019-05-02T06:24:24.488Z,14.10
2019-05-02T06:26:54.520Z,14.20
2019-05-02T06:29:24.536Z,14.00
2019-05-02T06:31:54.583Z,14.30
2019-05-02T06:34:24.772Z,14.50
2019-05-02T06:36:54.714Z,14.40
2019-05-02T06:39:27.202Z,14.50
2019-05-02T06:41:57.397Z,14.70
2019-05-02T06:44:28.150Z,14.70
2019-05-02T06:46:59.189Z,14.50
2019-05-02T06:49:30.243Z,14.70
2019-05-02T06:52:00.372Z,14.90
2019-05-02T06:54:31.438Z,15.00
2019-05-02T06:57:01.655Z,14.90
2019-05-02T06:59:31.797Z,14.70
2019-05-02T07:02:02.040Z,14.80
2019-05-02T07:04:32.235Z,14.70
2019-05-02T07:07:02.442Z,15.00
2019-05-02T07:09:40.277Z,15.00
2019-05-02T07:12:04.775Z,15.30
2019-05-02T07:14:35.201Z,15.30
2019-05-02T07:17:15.977Z,15.50
2019-05-02T07:19:50.143Z,15.60
2019-05-02T07:22:20.646Z,15.80
2019-05-02T07:24:50.847Z,15.60
2019-05-02T07:27:20.911Z,15.80
2019-05-02T07:29:52.046Z,15.80
2019-05-02T07:32:24.670Z,15.60
2019-05-02T07:34:54.703Z,16.30
2019-05-02T07:37:24.776Z,16.10
2019-05-02T07:39:54.862Z,16.10
2019-05-02T07:42:25.013Z,16.50
2019-05-02T07:44:54.945Z,16.80
2019-05-02T07:47:28.560Z,16.70
2019-05-02T07:49:57.178Z,16.70
2019-05-02T07:52:28.891Z,16.70
2019-05-02T07:55:02.617Z,16.70
2019-05-02T07:57:32.921Z,16.60
2019-05-02T08:00:04.274Z,16.30
2019-05-02T08:02:34.771Z,16.20
2019-05-02T08:05:08.738Z,16.70
2019-05-02T08:07:38.137Z,16.60
2019-05-02T08:10:09.107Z,16.40
2019-05-02T08:12:39.135Z,16.60
2019-05-02T08:15:13.332Z,17.10
2019-05-02T08:17:41.997Z,16.60
2019-05-02T08:20:13.666Z,16.80
2019-05-02T08:22:49.021Z,16.70
2019-05-02T08:25:17.429Z,16.60
2019-05-02T08:27:51.796Z,16.70
2019-05-02T08:30:23.680Z,17.00
2019-05-02T08:32:53.681Z,17.20
2019-05-02T08:35:23.814Z,17.20
2019-05-02T08:37:55.935Z,17.30
2019-05-02T08:40:25.673Z,17.20
2019-05-02T08:42:55.838Z,17.30
2019-05-02T08:45:25.780Z,17.40
2019-05-02T08:47:55.824Z,17.20
2019-05-02T08:50:27.146Z,17.20
2019-05-02T08:52:57.636Z,17.40
2019-05-02T08:55:29.995Z,17.30
2019-05-02T08:58:00.194Z,17.10
2019-05-02T09:00:32.046Z,17.30
2019-05-02T09:03:02.729Z,17.70
2019-05-02T09:05:36.376Z,17.90
2019-05-02T09:08:09.313Z,18.00
2019-05-02T09:10:42.198Z,18.00
2019-05-02T09:13:09.966Z,18.20
2019-05-02T09:15:46.322Z,17.70
2019-05-02T09:18:12.447Z,18.10
2019-05-02T09:20:46.968Z,18.10
2019-05-02T09:23:14.599Z,18.40
2019-05-02T09:25:44.787Z,18.50
2019-05-02T09:28:17.125Z,18.60
2019-05-02T09:30:46.928Z,18.20
2019-05-02T09:33:17.131Z,18.40
2019-05-02T09:35:47.129Z,18.50
2019-05-02T09:38:17.182Z,18.70
2019-05-02T09:40:51.876Z,18.50
2019-05-02T09:43:19.067Z,18.20
2019-05-02T09:45:49.080Z,18.70
2019-05-02T09:48:24.840Z,18.80
2019-05-02T09:50:52.693Z,18.30
2019-05-02T09:53:25.475Z,18.40
2019-05-02T09:55:57.944Z,18.80
2019-05-02T09:58:27.019Z,18.80
2019-05-02T10:01:11.878Z,18.70
2019-05-02T10:03:42.387Z,18.50
2019-05-02T10:06:18.257Z,19.20
2019-05-02T10:08:47.469Z,19.40
2019-05-02T10:11:24.426Z,19.40
2019-05-02T10:13:51.724Z,20.10
2019-05-02T10:16:23.652Z,19.80
2019-05-02T10:18:52.951Z,20.40
2019-05-02T10:21:23.182Z,20.30
2019-05-02T10:23:58.996Z,19.90
2019-05-02T10:26:25.054Z,19.10
2019-05-02T10:28:56.231Z,18.90
2019-05-02T10:31:27.529Z,19.50
2019-05-02T10:33:58.294Z,19.50
2019-05-02T10:36:28.464Z,19.40
2019-05-02T10:38:59.330Z,20.10
2019-05-02T10:41:33.572Z,21.00
2019-05-02T10:44:02.195Z,19.90
2019-05-02T10:46:37.789Z,20.60
2019-05-02T10:49:07.608Z,20.60
2019-05-02T10:51:41.923Z,21.70
2019-05-02T10:54:09.424Z,22.30
2019-05-02T10:56:42.257Z,21.90
2019-05-02T10:59:12.156Z,21.70
2019-05-02T11:01:46.848Z,21.20
2019-05-02T11:04:16.895Z,20.30
2019-05-02T11:06:46.911Z,20.80
2019-05-02T11:09:21.880Z,21.40
2019-05-02T11:11:48.659Z,22.20
2019-05-02T11:14:22.450Z,21.10
2019-05-02T11:16:56.731Z,20.70
2019-05-02T11:19:42.520Z,20.80
2019-05-02T11:22:12.767Z,21.60
2019-05-02T11:24:42.698Z,22.80
2019-05-02T11:27:12.923Z,22.70
2019-05-02T11:29:43.997Z,22.30
2019-05-02T11:32:14.404Z,21.80
2019-05-02T11:34:44.399Z,22.40
2019-05-02T11:37:14.494Z,23.00
2019-05-02T11:39:50.470Z,22.30
2019-05-02T11:42:17.628Z,22.90
2019-05-02T11:44:48.116Z,21.70
2019-05-02T11:47:24.909Z,21.80
2019-05-02T11:49:52.101Z,23.10
2019-05-02T11:52:22.603Z,22.70
2019-05-02T11:54:53.259Z,22.70
2019-05-02T11:57:28.659Z,23.40
2019-05-02T11:59:59.349Z,23.80
2019-05-02T12:02:37.752Z,23.60
2019-05-02T12:05:09.895Z,23.10
2019-05-02T12:07:41.726Z,22.00
2019-05-02T12:10:12.516Z,23.40
2019-05-02T12:12:43.045Z,24.20
2019-05-02T12:15:13.915Z,23.60
2019-05-02T12:17:43.901Z,22.20
2019-05-02T12:20:14.209Z,22.00
2019-05-02T12:22:44.560Z,21.70
2019-05-02T12:25:14.594Z,21.90
2019-05-02T12:27:44.785Z,21.80
2019-05-02T12:30:14.846Z,22.00
2019-05-02T12:37:52.243Z,22.50
2019-05-02T12:40:21.604Z,22.80
2019-05-02T12:42:52.571Z,22.90
2019-05-02T12:45:22.666Z,23.60
2019-05-02T12:47:52.402Z,22.50
2019-05-02T12:50:22.651Z,22.40
2019-05-02T12:52:55.574Z,24.50
2019-05-02T12:55:24.434Z,25.00
2019-05-02T12:57:55.360Z,24.40
2019-05-02T13:00:25.476Z,22.50
2019-05-02T13:03:05.884Z,21.00
2019-05-02T13:05:35.904Z,21.50
2019-05-02T13:08:05.916Z,21.40
2019-05-02T13:10:37.657Z,21.40
2019-05-02T13:13:09.575Z,23.00
2019-05-02T13:15:43.409Z,23.30
2019-05-02T13:18:13.481Z,23.40
2019-05-02T13:20:43.861Z,22.60
2019-05-02T13:23:15.452Z,23.60
2019-05-02T13:25:45.594Z,24.80
2019-05-02T13:28:17.115Z,26.20
2019-05-02T13:30:49.082Z,27.80
2019-05-02T13:33:27.382Z,25.50
2019-05-02T13:35:58.483Z,23.60
2019-05-02T13:38:28.944Z,26.40
2019-05-02T13:40:59.166Z,26.80
2019-05-02T13:43:32.391Z,27.80
2019-05-02T13:48:33.681Z,24.70
2019-05-02T13:51:04.037Z,25.30
2019-05-02T13:53:35.931Z,28.50
2019-05-02T13:56:21.824Z,28.60
2019-05-02T13:58:52.202Z,28.90
2019-05-02T14:01:23.169Z,28.50
2019-05-02T14:03:55.830Z,26.50
2019-05-02T14:06:30.321Z,25.40
2019-05-02T14:09:19.922Z,25.20
2019-05-02T14:11:52.768Z,26.60
2019-05-02T14:24:25.045Z,23.30
2019-05-02T14:34:28.926Z,26.90
2019-05-02T14:36:59.447Z,28.60
2019-05-02T14:39:29.328Z,25.90
2019-05-02T14:41:59.055Z,24.80
2019-05-02T14:44:56.735Z,23.60
2019-05-02T14:49:29.283Z,25.10
2019-05-02T14:52:03.053Z,24.50
2019-05-02T15:02:13.058Z,26.00
2019-05-02T15:07:17.714Z,23.90
2019-05-02T15:12:18.829Z,21.80
2019-05-02T15:14:49.749Z,21.20
2019-05-02T15:17:18.198Z,21.70
2019-05-02T15:19:48.142Z,21.10
2019-05-02T15:22:18.346Z,22.30
2019-05-02T15:24:48.377Z,22.20
2019-05-02T15:27:18.331Z,21.50
2019-05-02T15:29:48.288Z,21.40
2019-05-02T15:32:32.467Z,20.70
2019-05-02T15:37:35.847Z,20.60
2019-05-02T15:42:38.635Z,22.50
2019-05-02T15:47:41.599Z,25.80
2019-05-02T15:50:14.795Z,26.70
2019-05-02T15:52:44.357Z,27.20
2019-05-02T15:55:14.328Z,24.20
2019-05-02T15:57:46.363Z,23.70
2019-05-02T16:00:32.199Z,23.60
2019-05-02T16:05:36.630Z,24.50
2019-05-02T16:08:08.556Z,24.10
2019-05-02T16:13:13.452Z,24.50
2019-05-02T16:15:42.673Z,24.60
2019-05-02T16:18:12.823Z,23.80
2019-05-02T16:20:47.369Z,23.40
2019-05-02T16:23:19.022Z,22.30
2019-05-02T16:25:47.460Z,22.10
2019-05-02T16:28:17.429Z,23.40
2019-05-02T16:30:49.074Z,23.10
2019-05-02T16:35:51.548Z,22.90
2019-05-02T16:40:52.612Z,22.50
2019-05-02T16:43:24.823Z,21.20
2019-05-02T16:45:54.868Z,22.90
2019-05-02T16:48:32.399Z,22.00
2019-05-02T16:50:57.534Z,21.90
2019-05-02T17:00:59.122Z,21.70
2019-05-02T17:03:29.357Z,21.70
2019-05-02T17:06:01.564Z,22.40
2019-05-02T17:08:33.096Z,21.50
2019-05-02T17:11:04.677Z,21.80
2019-05-02T17:13:35.855Z,21.70
2019-05-02T17:16:13.005Z,21.00
2019-05-02T17:18:37.716Z,20.90
2019-05-02T17:21:07.718Z,20.80
2019-05-02T17:23:42.924Z,20.10
2019-05-02T17:26:12.155Z,19.90
2019-05-02T17:28:46.936Z,19.40
2019-05-02T17:31:19.589Z,20.30
2019-05-02T17:33:51.083Z,18.50
2019-05-02T17:36:21.605Z,19.70
2019-05-02T17:38:52.009Z,19.10
2019-05-02T17:41:22.902Z,19.20
2019-05-02T17:43:55.741Z,18.70
2019-05-02T17:46:25.990Z,18.90
2019-05-02T17:48:56.150Z,18.40
2019-05-02T17:51:42.687Z,18.70
2019-05-02T17:54:26.261Z,18.60
2019-05-02T17:56:57.399Z,18.90
2019-05-02T17:59:28.310Z,18.40
2019-05-02T18:01:59.122Z,18.30
2019-05-02T18:04:29.174Z,17.80
2019-05-02T18:06:59.170Z,18.10
2019-05-02T18:09:31.680Z,18.00
2019-05-02T18:12:01.592Z,17.90
2019-05-02T18:14:31.662Z,17.90
2019-05-02T18:17:01.973Z,17.80
2019-05-02T18:19:32.208Z,17.70
2019-05-02T18:22:03.542Z,17.70
2019-05-02T18:24:37.442Z,17.70
2019-05-02T18:27:06.475Z,17.60
2019-05-02T18:29:41.591Z,17.60
2019-05-02T18:32:08.329Z,17.50
2019-05-02T18:34:38.281Z,17.40
2019-05-02T18:37:08.302Z,17.40
2019-05-02T18:39:42.599Z,17.30
2019-05-02T18:42:11.808Z,17.20
2019-05-02T18:44:42.024Z,17.20
2019-05-02T18:47:20.226Z,17.40
2019-05-02T18:49:46.466Z,17.10
2019-05-02T18:52:16.382Z,17.10
2019-05-02T18:54:47.482Z,17.00
2019-05-02T18:57:22.424Z,17.10
2019-05-02T18:59:52.053Z,16.50
2019-05-02T19:02:26.536Z,17.10
2019-05-02T19:04:54.431Z,17.10
2019-05-02T19:07:32.548Z,17.20
2019-05-02T19:09:58.949Z,17.20
2019-05-02T19:14:57.550Z,17.20
2019-05-02T19:17:29.023Z,16.90
2019-05-02T19:19:59.044Z,17.30
2019-05-02T19:22:29.454Z,16.90
2019-05-02T19:25:01.846Z,16.80
2019-05-02T19:27:48.014Z,16.70
2019-05-02T19:30:24.543Z,16.30
2019-05-02T19:32:51.011Z,16.50
2019-05-02T19:35:21.874Z,16.30
2019-05-02T19:37:52.474Z,16.20
2019-05-02T19:40:28.249Z,16.20
2019-05-02T19:43:02.003Z,15.60
2019-05-02T19:45:29.117Z,16.40
2019-05-02T19:47:59.082Z,15.90
2019-05-02T19:50:38.506Z,15.60
2019-05-02T19:53:04.665Z,15.70
2019-05-02T19:55:35.755Z,15.50
2019-05-02T19:58:06.839Z,15.30
2019-05-02T20:00:42.201Z,15.40
2019-05-02T20:03:15.512Z,15.60
2019-05-02T20:05:42.764Z,15.70
2019-05-02T20:08:14.687Z,15.60
2019-05-02T20:10:49.366Z,15.40
2019-05-02T20:13:20.322Z,16.60
2019-05-02T20:16:12.022Z,15.20
2019-05-02T20:18:46.607Z,15.80
2019-05-02T20:21:23.511Z,15.70
2019-05-02T20:23:47.082Z,15.80
2019-05-02T20:26:18.287Z,16.30
2019-05-02T20:28:48.215Z,16.00
2019-05-02T20:33:47.742Z,16.10
2019-05-02T20:36:18.102Z,15.60
2019-05-02T20:38:48.043Z,16.70
2019-05-02T20:43:48.406Z,15.80
2019-05-02T20:46:18.446Z,16.30
2019-05-02T20:48:48.372Z,16.40
2019-05-02T20:51:18.396Z,15.80
2019-05-02T20:56:17.959Z,15.70
2019-05-02T20:58:48.086Z,16.20
2019-05-02T21:01:18.087Z,15.80
2019-05-02T21:03:49.077Z,15.80
2019-05-02T21:06:20.728Z,15.70
2019-05-02T21:08:52.629Z,15.70
2019-05-02T21:11:24.084Z,15.80
2019-05-02T21:13:54.130Z,15.30
2019-05-02T21:16:24.083Z,15.80
2019-05-02T21:21:25.400Z,15.70
2019-05-02T21:23:55.363Z,15.70
2019-05-02T21:26:26.295Z,15.70
2019-05-02T21:28:56.256Z,15.70
2019-05-02T21:31:26.210Z,16.00
2019-05-02T21:33:56.258Z,15.80
2019-05-02T21:36:26.249Z,15.70
2019-05-02T21:43:55.394Z,16.20
2019-05-02T21:46:25.463Z,15.70
2019-05-02T21:48:55.431Z,15.60
2019-05-02T21:51:43.724Z,15.60
2019-05-02T21:57:02.675Z,15.50
2019-05-02T21:59:32.909Z,15.00
2019-05-02T22:02:04.328Z,15.50
2019-05-02T22:04:35.150Z,15.50
2019-05-02T22:07:05.174Z,15.60
2019-05-02T22:09:35.674Z,15.50
2019-05-02T22:12:05.655Z,15.30
2019-05-02T22:14:35.922Z,15.10
2019-05-02T22:17:05.876Z,15.20
2019-05-02T22:19:35.878Z,15.10
2019-05-02T22:22:06.135Z,15.00
2019-05-02T22:24:36.104Z,15.10
2019-05-02T22:27:06.169Z,15.10
2019-05-02T22:29:36.278Z,15.90
2019-05-02T22:32:06.410Z,16.00
2019-05-02T22:34:36.460Z,14.60
2019-05-02T22:37:08.327Z,14.90
2019-05-02T22:39:45.775Z,14.60
2019-05-02T22:42:15.741Z,14.50
2019-05-02T22:44:45.760Z,14.60
2019-05-02T22:47:15.726Z,14.40
2019-05-02T22:49:45.741Z,14.60
2019-05-02T22:52:15.666Z,14.50
2019-05-02T22:54:45.673Z,14.30
2019-05-02T22:57:15.707Z,14.00
2019-05-02T22:59:45.827Z,14.00
2019-05-02T23:04:47.432Z,13.60
2019-05-02T23:07:17.390Z,14.00
2019-05-02T23:09:47.313Z,14.00
2019-05-02T23:12:17.448Z,14.00
2019-05-02T23:14:47.400Z,14.00
2019-05-02T23:17:17.393Z,14.00
2019-05-02T23:19:47.342Z,13.90
2019-05-02T23:22:17.303Z,13.80
2019-05-02T23:24:52.074Z,13.70
2019-05-02T23:27:32.725Z,13.70
2019-05-02T23:30:03.018Z,14.50
2019-05-02T23:32:34.047Z,13.60
2019-05-02T23:35:07.367Z,14.40
2019-05-02T23:37:36.811Z,13.50
2019-05-02T23:40:07.178Z,13.50
2019-05-02T23:42:37.121Z,13.50
2019-05-02T23:45:07.926Z,13.50
2019-05-02T23:47:37.928Z,13.40
2019-05-02T23:50:08.170Z,13.40
2019-05-02T23:52:38.116Z,13.40
2019-05-02T23:55:08.839Z,13.40
2019-05-02T23:57:41.882Z,13.30
